createdAt,value
2022-09-21T00:01:31.906Z,13.20
2022-09-21T00:04:04.546Z,13.20
2022-09-21T00:06:35.170Z,13.20
2022-09-21T00:09:05.024Z,13.20
2022-09-21T00:11:34.314Z,13.00
2022-09-21T00:14:12.736Z,12.90
2022-09-21T00:16:43.018Z,12.90
2022-09-21T00:19:11.905Z,12.90
2022-09-21T00:21:39.448Z,12.90
2022-09-21T00:24:08.214Z,12.90
2022-09-21T00:26:35.544Z,12.80
2022-09-21T00:29:05.020Z,12.80
2022-09-21T00:31:33.156Z,12.70
2022-09-21T00:34:01.150Z,12.60
2022-09-21T00:36:29.093Z,12.70
2022-09-21T00:39:03.709Z,12.70
2022-09-21T00:41:34.319Z,12.50
2022-09-21T00:44:28.630Z,12.50
2022-09-21T00:47:15.503Z,12.50
2022-09-21T00:49:49.537Z,12.50
2022-09-21T00:52:19.564Z,12.50
2022-09-21T00:55:00.628Z,12.30
2022-09-21T00:57:31.276Z,12.20
2022-09-21T01:00:02.555Z,12.30
2022-09-21T01:02:30.047Z,12.30
2022-09-21T01:04:57.501Z,12.20
2022-09-21T01:07:33.659Z,12.20
2022-09-21T01:10:11.952Z,12.20
2022-09-21T01:13:41.457Z,12.10
2022-09-21T01:17:09.325Z,11.90
2022-09-21T01:20:38.360Z,11.90
2022-09-21T01:24:19.938Z,11.80
2022-09-21T01:27:41.874Z,11.60
2022-09-21T01:30:19.566Z,11.60
2022-09-21T01:33:28.268Z,11.60
2022-09-21T01:36:05.983Z,11.70
2022-09-21T01:38:45.349Z,11.60
2022-09-21T01:41:19.776Z,11.70
2022-09-21T01:43:56.881Z,11.70
2022-09-21T01:46:32.355Z,11.70
2022-09-21T01:49:14.099Z,11.70
2022-09-21T01:51:58.385Z,11.60
2022-09-21T01:54:39.632Z,11.60
2022-09-21T01:57:36.919Z,11.60
2022-09-21T02:00:07.259Z,11.60
2022-09-21T02:02:51.164Z,11.60
2022-09-21T02:05:23.588Z,11.50
2022-09-21T02:07:52.648Z,11.50
2022-09-21T02:10:45.946Z,11.50
2022-09-21T02:13:16.640Z,11.40
2022-09-21T02:16:26.124Z,11.40
2022-09-21T02:20:03.944Z,11.40
2022-09-21T02:23:29.541Z,11.30
2022-09-21T02:26:17.353Z,11.30
2022-09-21T02:29:33.504Z,11.20
2022-09-21T02:32:12.276Z,11.20
2022-09-21T02:35:02.416Z,11.20
2022-09-21T02:37:57.043Z,11.20
2022-09-21T02:40:53.629Z,11.20
2022-09-21T02:43:39.400Z,11.20
2022-09-21T02:46:21.382Z,11.20
2022-09-21T02:49:03.629Z,11.10
2022-09-21T02:51:41.353Z,11.10
2022-09-21T02:54:14.385Z,11.10
2022-09-21T02:56:44.552Z,11.10
2022-09-21T02:59:16.698Z,11.00
2022-09-21T03:01:44.615Z,10.90
2022-09-21T03:04:12.301Z,10.80
2022-09-21T03:06:39.601Z,10.80
2022-09-21T03:09:07.039Z,10.80
2022-09-21T03:11:36.113Z,10.80
2022-09-21T03:14:08.595Z,10.80
2022-09-21T03:16:37.576Z,10.90
2022-09-21T03:19:06.136Z,10.80
2022-09-21T03:21:34.368Z,10.70
2022-09-21T03:24:01.999Z,10.60
2022-09-21T03:26:29.704Z,10.60
2022-09-21T03:28:57.091Z,10.50
2022-09-21T03:31:24.430Z,10.40
2022-09-21T03:33:51.798Z,10.40
2022-09-21T03:36:19.521Z,10.50
2022-09-21T03:38:46.827Z,10.60
2022-09-21T03:41:15.271Z,10.60
2022-09-21T03:43:42.539Z,10.60
2022-09-21T03:46:10.148Z,10.60
2022-09-21T03:48:37.447Z,10.50
2022-09-21T03:51:04.883Z,10.40
2022-09-21T03:53:32.153Z,10.40
2022-09-21T03:55:59.420Z,10.40
2022-09-21T03:58:26.772Z,10.40
2022-09-21T04:00:54.788Z,10.50
2022-09-21T04:03:22.260Z,10.50
2022-09-21T04:05:49.787Z,10.40
2022-09-21T04:08:17.028Z,10.20
2022-09-21T04:10:44.387Z,10.10
2022-09-21T04:13:14.358Z,10.10
2022-09-21T04:15:41.680Z,10.10
2022-09-21T04:18:09.062Z,10.10
2022-09-21T04:20:36.392Z,10.10
2022-09-21T04:23:03.748Z,10.10
2022-09-21T04:25:31.031Z,10.10
2022-09-21T04:27:58.324Z,10.10
2022-09-21T04:30:25.787Z,10.10
2022-09-21T04:32:53.320Z,10.00
2022-09-21T04:35:21.254Z,10.00
2022-09-21T04:37:48.499Z,10.00
2022-09-21T04:40:15.909Z,10.00
2022-09-21T04:42:43.257Z,9.90
2022-09-21T04:45:11.209Z,9.90
2022-09-21T04:47:38.472Z,9.90
2022-09-21T04:50:07.084Z,9.90
2022-09-21T04:52:34.373Z,9.90
2022-09-21T04:55:01.665Z,9.90
2022-09-21T04:57:29.644Z,9.90
2022-09-21T04:59:56.913Z,9.90
2022-09-21T05:02:25.344Z,9.90
2022-09-21T05:04:52.600Z,9.90
2022-09-21T05:07:19.876Z,9.90
2022-09-21T05:10:05.279Z,10.00
2022-09-21T05:12:39.709Z,10.00
2022-09-21T05:15:11.406Z,10.10
2022-09-21T05:17:39.968Z,10.10
2022-09-21T05:20:07.900Z,10.20
2022-09-21T05:22:35.590Z,10.20
2022-09-21T05:25:03.128Z,10.10
2022-09-21T05:27:30.375Z,10.10
2022-09-21T05:29:58.281Z,10.20
2022-09-21T05:32:53.833Z,10.20
2022-09-21T05:36:10.489Z,10.20
2022-09-21T05:38:38.219Z,10.20
2022-09-21T05:41:06.587Z,10.30
2022-09-21T05:43:34.599Z,10.30
2022-09-21T05:46:59.147Z,10.40
2022-09-21T05:50:51.036Z,10.50
2022-09-21T05:54:12.108Z,10.50
2022-09-21T05:57:12.576Z,10.50
2022-09-21T06:00:16.360Z,10.40
2022-09-21T06:03:31.083Z,10.40
2022-09-21T06:05:59.452Z,10.40
2022-09-21T06:08:27.643Z,10.40
2022-09-21T06:10:57.645Z,10.50
2022-09-21T06:13:24.933Z,10.60
2022-09-21T06:15:52.416Z,10.70
2022-09-21T06:18:20.016Z,10.80
2022-09-21T06:20:47.580Z,10.80
2022-09-21T06:23:15.615Z,10.80
2022-09-21T06:25:44.499Z,10.80
2022-09-21T06:28:13.391Z,10.90
2022-09-21T06:30:42.857Z,10.90
2022-09-21T06:33:10.601Z,11.00
2022-09-21T06:35:38.080Z,11.00
2022-09-21T06:38:08.133Z,11.00
2022-09-21T06:40:38.969Z,11.10
2022-09-21T06:43:06.620Z,11.10
2022-09-21T06:45:34.226Z,11.10
2022-09-21T06:48:01.783Z,11.10
2022-09-21T06:50:29.446Z,11.10
2022-09-21T06:53:03.509Z,11.10
2022-09-21T06:55:32.077Z,11.10
2022-09-21T06:58:05.462Z,11.20
2022-09-21T07:00:33.527Z,11.10
2022-09-21T07:03:04.470Z,11.10
2022-09-21T07:05:34.208Z,11.20
2022-09-21T07:08:02.443Z,11.20
2022-09-21T07:10:29.756Z,11.20
2022-09-21T07:13:02.707Z,11.20
2022-09-21T07:15:31.180Z,11.20
2022-09-21T07:18:06.148Z,11.20
2022-09-21T07:20:33.795Z,11.20
2022-09-21T07:23:01.789Z,11.30
2022-09-21T07:25:29.299Z,11.30
2022-09-21T07:27:56.571Z,11.40
2022-09-21T07:30:23.933Z,11.40
2022-09-21T07:32:51.252Z,11.20
2022-09-21T07:35:20.121Z,11.20
2022-09-21T07:37:47.367Z,11.20
2022-09-21T07:40:14.749Z,11.30
2022-09-21T07:42:44.848Z,11.30
2022-09-21T07:45:12.298Z,11.40
2022-09-21T07:47:39.576Z,11.50
2022-09-21T07:50:07.602Z,11.60
2022-09-21T07:52:35.147Z,11.60
2022-09-21T07:55:02.425Z,11.60
2022-09-21T07:57:48.215Z,11.60
2022-09-21T08:00:15.764Z,11.60
2022-09-21T08:02:47.498Z,11.50
2022-09-21T08:05:17.615Z,11.40
2022-09-21T08:07:44.972Z,11.40
2022-09-21T08:10:13.058Z,11.40
2022-09-21T08:12:41.196Z,11.40
2022-09-21T08:15:25.011Z,11.50
2022-09-21T08:17:58.715Z,11.50
2022-09-21T08:20:26.080Z,11.60
2022-09-21T08:22:56.279Z,11.70
2022-09-21T08:25:23.923Z,11.80
2022-09-21T08:27:51.180Z,11.80
2022-09-21T08:30:18.512Z,12.00
2022-09-21T08:32:52.065Z,12.00
2022-09-21T08:35:19.410Z,12.00
2022-09-21T08:37:46.800Z,12.00
2022-09-21T08:40:16.789Z,12.10
2022-09-21T08:43:09.645Z,12.10
2022-09-21T08:45:46.692Z,12.20
2022-09-21T08:48:30.026Z,12.30
2022-09-21T08:51:11.354Z,12.30
2022-09-21T08:53:48.117Z,12.30
2022-09-21T08:56:16.395Z,12.40
2022-09-21T08:58:43.991Z,12.40
2022-09-21T09:01:20.318Z,12.50
2022-09-21T09:04:31.215Z,12.50
2022-09-21T09:07:33.271Z,12.60
2022-09-21T09:10:27.984Z,12.60
2022-09-21T09:14:13.669Z,12.70
2022-09-21T09:17:36.224Z,12.80
2022-09-21T09:20:36.120Z,12.70
2022-09-21T09:23:18.292Z,12.80
2022-09-21T09:26:10.863Z,12.90
2022-09-21T09:29:01.984Z,13.00
2022-09-21T09:31:40.180Z,13.10
2022-09-21T09:34:33.612Z,13.20
2022-09-21T09:37:16.621Z,13.30
2022-09-21T09:39:54.800Z,13.30
2022-09-21T09:43:07.535Z,13.40
2022-09-21T09:46:13.543Z,13.60
2022-09-21T09:49:38.612Z,13.70
2022-09-21T09:52:11.130Z,13.80
2022-09-21T09:54:38.525Z,14.00
2022-09-21T09:57:07.376Z,14.10
2022-09-21T09:59:54.413Z,14.20
2022-09-21T10:02:29.456Z,14.40
2022-09-21T10:05:07.322Z,14.40
2022-09-21T10:07:45.893Z,14.50
2022-09-21T10:10:29.253Z,14.70
2022-09-21T10:13:37.943Z,14.90
2022-09-21T10:16:22.895Z,14.90
2022-09-21T10:18:56.459Z,15.10
2022-09-21T10:21:41.360Z,15.40
2022-09-21T10:24:23.540Z,15.50
2022-09-21T10:27:05.048Z,15.70
2022-09-21T10:29:47.716Z,16.00
2022-09-21T10:32:26.574Z,16.20
2022-09-21T10:35:10.342Z,16.40
2022-09-21T10:37:48.478Z,16.60
2022-09-21T10:40:21.450Z,16.80
2022-09-21T10:43:00.437Z,17.00
2022-09-21T10:45:37.026Z,17.10
2022-09-21T10:48:20.972Z,17.30
2022-09-21T10:50:51.576Z,17.50
2022-09-21T10:53:36.142Z,17.70
2022-09-21T10:56:17.607Z,17.90
2022-09-21T10:59:27.284Z,18.20
2022-09-21T11:02:00.162Z,18.50
2022-09-21T11:04:53.708Z,18.50
2022-09-21T11:07:47.852Z,18.70
2022-09-21T11:10:51.233Z,19.00
2022-09-21T11:13:41.024Z,19.20
2022-09-21T11:16:48.728Z,19.40
2022-09-21T11:19:52.411Z,19.40
2022-09-21T11:22:57.715Z,19.50
2022-09-21T11:25:43.765Z,19.70
2022-09-21T11:28:28.668Z,19.90
2022-09-21T11:31:40.607Z,20.00
2022-09-21T11:34:55.860Z,20.30
2022-09-21T11:38:11.748Z,20.30
2022-09-21T11:40:55.807Z,20.40
2022-09-21T11:44:18.855Z,20.60
2022-09-21T11:47:58.483Z,20.70
2022-09-21T11:51:38.717Z,20.90
2022-09-21T11:55:00.628Z,21.10
2022-09-21T11:57:38.739Z,21.30
2022-09-21T12:00:21.513Z,21.30
2022-09-21T12:03:45.940Z,21.60
2022-09-21T12:07:01.427Z,21.60
2022-09-21T12:10:28.189Z,21.80
2022-09-21T12:13:43.888Z,21.90
2022-09-21T12:17:06.385Z,22.10
2022-09-21T12:20:06.157Z,22.30
2022-09-21T12:22:43.743Z,22.20
2022-09-21T12:25:43.796Z,22.30
2022-09-21T12:28:49.266Z,22.40
2022-09-21T12:31:30.308Z,22.50
2022-09-21T12:34:38.031Z,22.70
2022-09-21T12:37:32.524Z,22.80
2022-09-21T12:40:36.653Z,22.80
2022-09-21T12:43:39.613Z,22.90
2022-09-21T12:46:29.955Z,23.00
2022-09-21T12:49:03.099Z,22.90
2022-09-21T12:51:43.000Z,23.20
2022-09-21T12:55:10.024Z,23.30
2022-09-21T12:58:41.364Z,23.40
2022-09-21T13:01:56.989Z,23.50
2022-09-21T13:05:15.999Z,23.60
2022-09-21T13:08:31.030Z,23.80
2022-09-21T13:11:07.823Z,23.90
2022-09-21T13:13:56.327Z,24.10
2022-09-21T13:16:40.201Z,24.10
2022-09-21T13:19:13.459Z,24.30
2022-09-21T13:21:42.154Z,24.10
2022-09-21T13:24:30.457Z,24.30
2022-09-21T13:27:05.026Z,24.20
2022-09-21T13:29:38.047Z,24.10
2022-09-21T13:32:24.053Z,24.20
2022-09-21T13:34:51.588Z,24.20
2022-09-21T13:37:19.120Z,24.20
2022-09-21T13:40:06.230Z,24.10
2022-09-21T13:42:33.675Z,24.00
2022-09-21T13:45:15.597Z,23.70
2022-09-21T13:47:47.308Z,23.60
2022-09-21T13:50:39.159Z,23.70
2022-09-21T13:53:29.611Z,23.70
2022-09-21T13:56:16.724Z,23.90
2022-09-21T13:58:52.146Z,24.00
2022-09-21T14:01:45.899Z,24.10
2022-09-21T14:04:31.678Z,24.30
2022-09-21T14:07:08.041Z,24.30
2022-09-21T14:10:03.686Z,24.30
2022-09-21T14:12:44.576Z,24.40
2022-09-21T14:15:19.197Z,24.50
2022-09-21T14:18:37.653Z,24.40
2022-09-21T14:21:18.349Z,24.40
2022-09-21T14:24:07.679Z,24.40
2022-09-21T14:26:39.734Z,24.30
2022-09-21T14:29:48.271Z,24.20
2022-09-21T14:32:25.564Z,23.90
2022-09-21T14:35:08.141Z,23.70
2022-09-21T14:37:52.162Z,23.50
2022-09-21T14:40:42.248Z,23.40
2022-09-21T14:43:20.408Z,23.20
2022-09-21T14:46:36.798Z,23.10
2022-09-21T14:49:51.188Z,23.00
2022-09-21T14:52:43.375Z,22.90
2022-09-21T14:56:22.551Z,22.90
2022-09-21T15:00:00.891Z,22.60
2022-09-21T15:02:35.703Z,22.40
2022-09-21T15:05:09.606Z,22.30
2022-09-21T15:08:56.548Z,22.20
2022-09-21T15:11:44.280Z,22.20
2022-09-21T15:14:38.236Z,22.10
2022-09-21T15:17:30.038Z,22.00
2022-09-21T15:20:16.213Z,21.80
2022-09-21T15:22:44.185Z,21.70
2022-09-21T15:25:14.671Z,21.70
2022-09-21T15:27:47.367Z,21.60
2022-09-21T15:30:33.125Z,21.50
2022-09-21T15:33:02.751Z,21.40
2022-09-21T15:35:33.739Z,21.30
2022-09-21T15:38:01.671Z,21.30
2022-09-21T15:40:35.893Z,21.20
2022-09-21T15:43:11.728Z,21.10
2022-09-21T15:46:07.441Z,21.00
2022-09-21T15:48:42.210Z,21.10
2022-09-21T15:51:31.148Z,20.90
2022-09-21T15:54:30.530Z,20.90
2022-09-21T15:57:05.921Z,20.80
2022-09-21T15:59:35.436Z,20.70
2022-09-21T16:02:17.352Z,20.70
2022-09-21T16:04:52.471Z,20.50
2022-09-21T16:07:38.823Z,20.40
2022-09-21T16:10:30.818Z,20.30
2022-09-21T16:13:43.821Z,20.20
2022-09-21T16:16:14.849Z,20.20
2022-09-21T16:18:54.422Z,20.10
2022-09-21T16:21:27.671Z,20.00
2022-09-21T16:23:59.183Z,20.00
2022-09-21T16:26:38.001Z,20.00
2022-09-21T16:29:45.531Z,19.90
2022-09-21T16:32:18.695Z,19.80
2022-09-21T16:34:52.685Z,19.70
2022-09-21T16:37:25.912Z,19.70
2022-09-21T16:40:00.566Z,19.60
2022-09-21T16:42:34.331Z,19.60
2022-09-21T16:45:11.264Z,19.50
2022-09-21T16:47:39.248Z,19.40
2022-09-21T16:50:18.998Z,19.40
2022-09-21T16:52:52.058Z,19.40
2022-09-21T16:55:24.351Z,19.30
2022-09-21T16:57:54.327Z,19.20
2022-09-21T17:00:22.165Z,19.20
2022-09-21T17:02:49.795Z,19.10
2022-09-21T17:05:20.683Z,19.10
2022-09-21T17:07:59.198Z,19.00
2022-09-21T17:10:37.873Z,19.00
2022-09-21T17:13:06.890Z,19.00
2022-09-21T17:15:36.352Z,18.90
2022-09-21T17:18:04.672Z,18.90
2022-09-21T17:20:43.760Z,18.80
2022-09-21T17:23:12.076Z,18.80
2022-09-21T17:25:39.435Z,18.80
2022-09-21T17:28:25.746Z,18.80
2022-09-21T17:30:54.793Z,18.70
2022-09-21T17:33:25.043Z,18.60
2022-09-21T17:35:53.208Z,18.60
2022-09-21T17:38:20.738Z,18.50
2022-09-21T17:40:48.305Z,18.50
2022-09-21T17:43:54.896Z,18.40
2022-09-21T17:47:01.408Z,18.40
2022-09-21T17:49:29.968Z,18.40
2022-09-21T17:52:16.288Z,18.30
2022-09-21T17:54:43.927Z,18.30
2022-09-21T17:57:41.924Z,18.20
2022-09-21T18:00:32.250Z,18.20
2022-09-21T18:03:00.009Z,18.10
2022-09-21T18:05:30.761Z,18.00
2022-09-21T18:07:59.014Z,18.00
2022-09-21T18:10:27.520Z,18.00
2022-09-21T18:13:47.954Z,18.00
2022-09-21T18:17:01.077Z,17.90
2022-09-21T18:20:34.231Z,17.90
2022-09-21T18:23:37.663Z,17.80
2022-09-21T18:26:05.980Z,17.70
2022-09-21T18:28:48.012Z,17.70
2022-09-21T18:32:06.993Z,17.60
2022-09-21T18:35:18.662Z,17.60
2022-09-21T18:38:26.911Z,17.50
2022-09-21T18:41:46.144Z,17.40
2022-09-21T18:44:49.867Z,17.40
2022-09-21T18:47:38.842Z,17.40
2022-09-21T18:51:14.911Z,17.30
2022-09-21T18:54:03.477Z,17.10
2022-09-21T18:56:37.864Z,17.00
2022-09-21T18:59:07.153Z,17.00
2022-09-21T19:01:35.180Z,16.90
2022-09-21T19:04:03.327Z,16.90
2022-09-21T19:06:44.559Z,16.90
2022-09-21T19:09:37.444Z,16.90
2022-09-21T19:13:02.375Z,16.80
2022-09-21T19:16:00.820Z,16.80
2022-09-21T19:19:06.740Z,16.80
2022-09-21T19:22:01.505Z,16.80
2022-09-21T19:25:04.524Z,16.70
2022-09-21T19:27:46.968Z,16.70
2022-09-21T19:30:17.116Z,16.60
2022-09-21T19:33:02.889Z,16.60
2022-09-21T19:35:34.364Z,16.60
2022-09-21T19:38:09.087Z,16.60
2022-09-21T19:40:39.494Z,16.50
2022-09-21T19:43:40.228Z,16.50
2022-09-21T19:47:12.147Z,16.50
2022-09-21T19:49:54.706Z,16.40
2022-09-21T19:52:35.639Z,16.40
2022-09-21T19:55:23.551Z,16.40
2022-09-21T19:58:14.502Z,16.40
2022-09-21T20:00:43.710Z,16.30
2022-09-21T20:03:44.690Z,16.30
2022-09-21T20:06:44.193Z,16.30
2022-09-21T20:09:42.133Z,16.30
2022-09-21T20:12:42.090Z,16.20
2022-09-21T20:15:29.379Z,16.20
2022-09-21T20:18:14.773Z,16.10
2022-09-21T20:20:43.080Z,16.10
2022-09-21T20:23:13.902Z,16.10
2022-09-21T20:26:01.414Z,16.00
2022-09-21T20:28:29.148Z,16.00
2022-09-21T20:30:56.914Z,16.00
2022-09-21T20:33:26.873Z,16.00
2022-09-21T20:35:55.890Z,16.00
2022-09-21T20:38:23.516Z,16.00
2022-09-21T20:40:52.339Z,15.90
2022-09-21T20:43:21.915Z,15.90
2022-09-21T20:45:49.380Z,15.80
2022-09-21T20:48:17.488Z,15.80
2022-09-21T20:50:50.370Z,15.80
2022-09-21T20:53:19.264Z,15.80
2022-09-21T20:56:00.963Z,15.70
2022-09-21T20:58:35.233Z,15.70
2022-09-21T21:01:10.009Z,15.70
2022-09-21T21:03:37.504Z,15.70
2022-09-21T21:06:18.649Z,15.60
2022-09-21T21:08:46.264Z,15.60
2022-09-21T21:11:16.908Z,15.50
2022-09-21T21:13:44.286Z,15.50
2022-09-21T21:16:12.499Z,15.50
2022-09-21T21:18:41.624Z,15.40
2022-09-21T21:21:09.737Z,15.40
2022-09-21T21:23:57.161Z,15.40
2022-09-21T21:26:43.858Z,15.40
2022-09-21T21:29:14.504Z,15.40
2022-09-21T21:31:42.207Z,15.40
2022-09-21T21:34:09.549Z,15.40
2022-09-21T21:36:36.845Z,15.40
2022-09-21T21:39:04.159Z,15.30
2022-09-21T21:41:32.655Z,15.30
2022-09-21T21:44:00.196Z,15.30
2022-09-21T21:46:28.027Z,15.20
2022-09-21T21:48:55.327Z,15.20
2022-09-21T21:51:22.595Z,15.20
2022-09-21T21:53:49.869Z,15.10
2022-09-21T21:56:20.083Z,15.10
2022-09-21T21:58:47.525Z,15.10
2022-09-21T22:01:22.255Z,15.10
2022-09-21T22:04:01.676Z,15.10
2022-09-21T22:06:33.391Z,15.10
2022-09-21T22:09:03.499Z,15.00
2022-09-21T22:11:32.055Z,14.90
2022-09-21T22:14:02.645Z,14.90
2022-09-21T22:16:32.196Z,14.90
2022-09-21T22:19:04.685Z,14.80
2022-09-21T22:21:48.187Z,14.80
2022-09-21T22:24:17.810Z,14.80
2022-09-21T22:26:48.424Z,14.70
2022-09-21T22:29:17.312Z,14.70
2022-09-21T22:31:50.089Z,14.60
2022-09-21T22:34:17.680Z,14.60
2022-09-21T22:36:45.107Z,14.60
2022-09-21T22:39:12.946Z,14.60
2022-09-21T22:41:42.787Z,14.50
2022-09-21T22:44:11.361Z,14.50
2022-09-21T22:46:39.109Z,14.50
2022-09-21T22:49:07.739Z,14.50
2022-09-21T22:51:37.857Z,14.40
2022-09-21T22:54:05.241Z,14.30
2022-09-21T22:56:35.039Z,14.20
2022-09-21T22:59:05.428Z,14.20
2022-09-21T23:01:40.223Z,14.10
2022-09-21T23:04:13.630Z,14.10
2022-09-21T23:06:45.260Z,14.00
2022-09-21T23:09:21.360Z,14.00
2022-09-21T23:11:54.917Z,14.00
2022-09-21T23:14:23.537Z,13.90
2022-09-21T23:16:51.190Z,13.90
2022-09-21T23:19:18.540Z,13.80
2022-09-21T23:21:50.137Z,13.80
2022-09-21T23:24:20.334Z,13.80
2022-09-21T23:26:52.963Z,13.80
2022-09-21T23:29:20.553Z,13.70
2022-09-21T23:31:47.993Z,13.70
2022-09-21T23:34:16.422Z,13.70
2022-09-21T23:36:45.445Z,13.70
2022-09-21T23:39:15.209Z,13.60
2022-09-21T23:41:42.885Z,13.60
2022-09-21T23:44:11.168Z,13.50
2022-09-21T23:46:40.918Z,13.50
2022-09-21T23:49:09.007Z,13.50
2022-09-21T23:51:36.911Z,13.50
2022-09-21T23:54:04.967Z,13.50
2022-09-21T23:56:32.768Z,13.40
2022-09-21T23:59:00.937Z,13.40
